Time;durP1;ratioP1;P1;durP2;ratioP2;P2;SDS_P1;SDS_P2;PMS_P1;PMS_P2;Temp;Humidity;BMP_temperature;BMP_pressure;BME280_temperature;BME280_humidity;BME280_pressure;Samples;Min_cycle;Max_cycle;Signal;HPM_P1;HPM_P2
2021/06/16 00:01:34;;;;;;;16.85;8.82;;;;;;;18.04;78.85;98642.75;4927106;28;20067;-65
2021/06/16 00:04:00;;;;;;;14.13;6.97;;;;;;;18.15;76.83;98637.50;4918812;29;20556;-65
2021/06/16 00:06:27;;;;;;;17.13;7.82;;;;;;;18.20;76.47;98637.25;4923651;29;20048;-67
2021/06/16 00:08:54;;;;;;;11.20;6.07;;;;;;;18.18;75.96;98633.22;4921990;29;20050;-66
2021/06/16 00:11:22;;;;;;;17.58;6.90;;;;;;;18.20;76.11;98641.97;4917044;29;20538;-67
2021/06/16 00:13:48;;;;;;;22.13;8.40;;;;;;;18.18;76.23;98642.31;4921573;29;20107;-67
2021/06/16 00:16:14;;;;;;;18.30;9.10;;;;;;;18.16;75.69;98636.34;4919670;29;20104;-67
2021/06/16 00:18:41;;;;;;;28.57;14.10;;;;;;;18.18;74.98;98639.56;4922395;29;20055;-66
2021/06/16 00:21:07;;;;;;;27.13;13.57;;;;;;;18.14;74.60;98636.69;4920072;29;20058;-66
2021/06/16 00:23:34;;;;;;;32.88;17.60;;;;;;;18.13;74.63;98639.84;4919496;29;20067;-66
2021/06/16 00:26:00;;;;;;;34.03;22.80;;;;;;;18.17;74.46;98642.66;4918709;29;20049;-68
2021/06/16 00:28:28;;;;;;;21.92;12.07;;;;;;;18.14;73.62;98647.75;4922831;29;20076;-66
2021/06/16 00:30:54;;;;;;;11.40;6.07;;;;;;;18.20;71.44;98650.28;4921366;29;20044;-65
2021/06/16 00:33:21;;;;;;;16.98;9.35;;;;;;;18.23;72.12;98646.81;4917635;29;20048;-64
2021/06/16 00:35:47;;;;;;;15.02;8.32;;;;;;;18.22;71.57;98645.19;4920994;29;20075;-65
2021/06/16 00:38:13;;;;;;;13.40;6.40;;;;;;;18.22;71.71;98650.72;4925979;29;20044;-65
2021/06/16 00:40:40;;;;;;;15.02;6.18;;;;;;;18.24;71.19;98653.94;4934961;29;20056;-65
2021/06/16 00:43:06;;;;;;;12.98;5.68;;;;;;;18.23;71.20;98655.09;4918715;29;20106;-65
2021/06/16 00:45:35;;;;;;;11.60;5.87;;;;;;;18.20;70.82;98655.81;4920778;29;20052;-65
2021/06/16 00:48:01;;;;;;;15.52;5.22;;;;;;;18.17;70.81;98653.72;4918588;29;20139;-67
2021/06/16 00:50:30;;;;;;;9.57;5.20;;;;;;;18.21;70.29;98647.16;4922172;29;20568;-68
2021/06/16 00:52:56;;;;;;;11.70;5.40;;;;;;;18.23;69.71;98650.34;4916192;29;20048;-65
2021/06/16 00:55:23;;;;;;;14.00;4.93;;;;;;;18.22;69.80;98643.22;4920899;29;20561;-66
2021/06/16 00:57:50;;;;;;;11.82;4.63;;;;;;;18.22;69.60;98651.53;4919117;28;20044;-67
2021/06/16 01:00:19;;;;;;;10.07;4.32;;;;;;;18.23;69.67;98644.03;4921126;29;20044;-66
2021/06/16 01:02:52;;;;;;;11.35;5.15;;;;;;;18.16;69.32;98647.41;4920237;29;20524;-66
2021/06/16 01:05:19;;;;;;;12.93;4.53;;;;;;;18.22;69.50;98645.19;4920706;28;20052;-66
2021/06/16 01:07:58;;;;;;;11.30;4.53;;;;;;;18.20;69.43;98653.84;4925363;29;20520;-66
2021/06/16 01:10:29;;;;;;;10.10;4.45;;;;;;;18.18;69.03;98647.03;4925072;29;20080;-67
2021/06/16 01:13:02;;;;;;;12.88;4.72;;;;;;;18.13;69.50;98648.91;4924828;29;20047;-67
2021/06/16 01:15:37;;;;;;;9.70;4.63;;;;;;;18.11;69.65;98642.16;4931326;29;20086;-65
2021/06/16 01:18:05;;;;;;;12.35;4.80;;;;;;;18.07;69.55;98647.56;4925148;29;20064;-64
2021/06/16 01:20:34;;;;;;;10.43;4.70;;;;;;;18.09;69.41;98652.72;4924671;29;20464;-64
2021/06/16 01:23:15;;;;;;;8.93;4.60;;;;;;;18.05;69.96;98646.31;4923766;29;20136;-65
2021/06/16 01:25:48;;;;;;;9.45;4.60;;;;;;;18.04;70.49;98639.16;4924954;29;20048;-66
2021/06/16 01:28:18;;;;;;;9.82;4.43;;;;;;;18.10;70.09;98640.50;4931267;29;20516;-66
2021/06/16 01:30:46;;;;;;;11.30;4.88;;;;;;;18.04;69.93;98640.00;4923198;28;20050;-66
2021/06/16 01:33:14;;;;;;;12.73;5.00;;;;;;;18.13;69.61;98648.13;4924245;29;20505;-66
2021/06/16 01:35:42;;;;;;;10.63;4.63;;;;;;;18.14;69.46;98647.75;4925623;29;20056;-66
2021/06/16 01:38:09;;;;;;;11.52;4.70;;;;;;;18.13;69.21;98654.44;4925216;29;20571;-66
2021/06/16 01:40:36;;;;;;;11.45;4.65;;;;;;;18.18;69.35;98647.03;4922426;29;20055;-66
2021/06/16 01:43:04;;;;;;;12.68;5.10;;;;;;;18.26;69.20;98640.56;4921960;29;20108;-64
2021/06/16 01:45:35;;;;;;;9.82;4.43;;;;;;;18.29;69.15;98648.13;4925598;29;20048;-66
2021/06/16 01:48:04;;;;;;;17.58;4.90;;;;;;;18.13;68.75;98629.56;4924526;29;20128;-64
2021/06/16 01:50:30;;;;;;;8.82;4.70;;;;;;;18.23;69.13;98658.66;4923819;29;20043;-67
2021/06/16 01:52:59;;;;;;;8.23;4.43;;;;;;;18.31;68.45;98653.31;4922375;29;20139;-65
2021/06/16 01:55:26;;;;;;;12.52;4.70;;;;;;;18.20;69.24;98673.19;4923872;29;20051;-65
2021/06/16 01:57:56;;;;;;;10.10;5.00;;;;;;;18.11;69.58;98662.31;4923606;29;20055;-66
2021/06/16 02:00:23;;;;;;;9.57;4.40;;;;;;;18.03;69.09;98668.00;4922519;29;20044;-67
2021/06/16 02:02:51;;;;;;;;;;;;;;;18.10;69.55;98666.22;4925195;29;20515;-67
2021/06/16 02:05:19;;;;;;;9.95;4.70;;;;;;;18.16;70.05;98665.97;4923310;29;19981;-65
2021/06/16 02:07:53;;;;;;;11.40;4.95;;;;;;;18.19;69.89;98673.56;4900531;29;20080;-68
2021/06/16 02:10:23;;;;;;;12.40;4.90;;;;;;;18.09;69.94;98666.56;4921797;29;20071;-67
2021/06/16 02:12:50;;;;;;;13.07;5.55;;;;;;;18.12;70.25;98677.72;4923831;29;20920;-67
2021/06/16 02:15:21;;;;;;;12.20;4.80;;;;;;;18.06;70.44;98673.63;4923819;29;20060;-68
2021/06/16 02:17:53;;;;;;;13.57;5.40;;;;;;;18.11;70.91;98686.41;4922098;29;20563;-68
2021/06/16 02:20:22;;;;;;;12.57;5.63;;;;;;;18.06;70.70;98684.69;4921934;29;20421;-67
2021/06/16 02:22:50;;;;;;;11.45;5.60;;;;;;;18.08;71.40;98676.84;4923363;29;20528;-67
2021/06/16 02:25:19;;;;;;;10.90;5.45;;;;;;;17.97;71.74;98687.56;4923546;29;20689;-68
2021/06/16 02:27:45;;;;;;;11.40;5.70;;;;;;;17.97;71.61;98678.47;4923096;29;20051;-68
2021/06/16 02:30:13;;;;;;;12.57;5.88;;;;;;;18.09;71.49;98697.00;4929699;29;20071;-68
2021/06/16 02:32:43;;;;;;;12.73;5.82;;;;;;;18.07;72.26;98697.34;4923653;29;20060;-68
2021/06/16 02:35:11;;;;;;;15.13;6.20;;;;;;;18.07;72.20;98693.78;4923423;29;20522;-66
2021/06/16 02:37:43;;;;;;;12.85;6.45;;;;;;;18.10;71.72;98691.13;4922850;29;20055;-68
2021/06/16 02:40:13;;;;;;;12.90;6.60;;;;;;;18.09;71.89;98685.94;4918140;29;20049;-68
2021/06/16 02:42:40;;;;;;;12.70;6.28;;;;;;;18.00;72.56;98700.69;4922904;29;20051;-69
2021/06/16 02:45:08;;;;;;;14.15;6.00;;;;;;;18.11;72.14;98697.47;4923907;29;20195;-66
2021/06/16 02:47:38;;;;;;;10.07;5.85;;;;;;;18.03;72.38;98709.47;4922383;29;20044;-66
2021/06/16 02:50:12;;;;;;;13.05;5.78;;;;;;;18.25;71.57;98700.59;4923296;29;20052;-66
2021/06/16 02:52:42;;;;;;;12.63;6.15;;;;;;;18.35;71.37;98707.59;4922488;29;20052;-67
2021/06/16 02:55:11;;;;;;;13.77;5.70;;;;;;;18.41;71.05;98708.13;4922928;29;20048;-68
2021/06/16 02:57:41;;;;;;;11.95;5.78;;;;;;;18.18;71.64;98705.13;4921999;29;20051;-68
2021/06/16 03:00:10;;;;;;;10.45;5.68;;;;;;;18.36;71.21;98723.03;4938963;29;20117;-68
2021/06/16 03:02:41;;;;;;;13.18;5.47;;;;;;;18.52;70.32;98714.75;4922538;28;20122;-67
2021/06/16 03:05:10;;;;;;;11.60;5.68;;;;;;;18.64;69.21;98722.19;4937661;29;20126;-66
2021/06/16 03:07:40;;;;;;;12.30;5.32;;;;;;;18.35;70.04;98726.97;4923036;29;20509;-68
2021/06/16 03:10:08;;;;;;;16.33;5.00;;;;;;;18.43;69.36;98716.91;4921768;28;20058;-65
2021/06/16 03:12:36;;;;;;;13.30;4.63;;;;;;;18.35;68.98;98715.09;4922674;29;20069;-67
2021/06/16 03:15:03;;;;;;;13.00;4.50;;;;;;;18.34;68.48;98736.44;4921847;29;20075;-67
2021/06/16 03:17:30;;;;;;;13.13;4.93;;;;;;;18.26;68.81;98726.31;4924383;29;20504;-67
2021/06/16 03:19:58;;;;;;;10.75;4.13;;;;;;;18.24;68.55;98729.41;4922701;29;20083;-67
2021/06/16 03:22:24;;;;;;;;;;;;;;;18.45;68.21;98739.50;4922500;29;20319;-66
2021/06/16 03:24:53;;;;;;;13.18;4.50;;;;;;;18.31;68.07;98709.44;4921758;29;19926;-67
2021/06/16 03:27:21;;;;;;;11.43;4.35;;;;;;;18.46;68.17;98724.50;4921318;29;20381;-68
2021/06/16 03:29:50;;;;;;;12.35;4.35;;;;;;;18.32;67.72;98737.94;4922601;29;20086;-64
2021/06/16 03:32:17;;;;;;;10.73;4.30;;;;;;;18.36;68.05;98725.81;4921574;29;20050;-67
2021/06/16 03:34:44;;;;;;;13.70;4.20;;;;;;;18.32;68.09;98741.50;4922726;29;20051;-67
2021/06/16 03:37:12;;;;;;;11.20;3.92;;;;;;;18.12;68.05;98729.50;4923542;29;20142;-67
2021/06/16 03:39:39;;;;;;;10.00;3.88;;;;;;;18.12;68.32;98730.28;4922611;29;20126;-67
2021/06/16 03:42:09;;;;;;;10.75;4.00;;;;;;;18.09;67.58;98735.72;4922950;29;20127;-66
2021/06/16 03:44:36;;;;;;;18.05;4.07;;;;;;;18.14;68.10;98739.03;4922512;29;20523;-67
2021/06/16 03:47:04;;;;;;;11.10;3.90;;;;;;;18.09;68.22;98764.19;4923645;29;20145;-65
2021/06/16 03:49:31;;;;;;;8.70;3.58;;;;;;;18.09;68.07;98742.06;4922643;29;20051;-67
2021/06/16 03:51:59;;;;;;;11.70;4.25;;;;;;;18.18;67.79;98741.91;4922591;29;20531;-67
2021/06/16 03:54:27;;;;;;;10.07;3.88;;;;;;;18.18;68.01;98732.78;4922976;29;20135;-67
2021/06/16 03:56:54;;;;;;;9.90;3.60;;;;;;;18.22;67.76;98742.81;4923372;29;20050;-65
2021/06/16 03:59:22;;;;;;;;;;;;;;;18.19;67.35;98749.03;4922475;29;20052;-67
2021/06/16 04:01:48;;;;;;;17.88;3.75;;;;;;;18.20;67.37;98761.72;4923203;29;20342;-66
2021/06/16 04:04:15;;;;;;;11.95;3.30;;;;;;;18.21;67.02;98763.31;4921650;29;20139;-67
2021/06/16 04:06:43;;;;;;;8.98;3.17;;;;;;;18.21;66.72;98748.69;4924245;29;20081;-67
2021/06/16 04:09:12;;;;;;;11.10;3.42;;;;;;;18.24;66.92;98759.84;4921983;29;20498;-67
2021/06/16 04:11:40;;;;;;;7.35;3.00;;;;;;;18.36;66.88;98750.72;4936055;28;20075;-67
2021/06/16 04:14:06;;;;;;;13.57;3.55;;;;;;;18.39;65.80;98761.06;4919364;29;20052;-67
2021/06/16 04:16:34;;;;;;;10.77;3.00;;;;;;;18.41;65.42;98775.34;4921701;29;20048;-69
2021/06/16 04:19:00;;;;;;;12.98;3.20;;;;;;;18.50;65.75;98753.06;4923259;29;20058;-70
2021/06/16 04:21:27;;;;;;;10.52;3.13;;;;;;;18.56;65.38;98751.63;4935774;29;20048;-68
2021/06/16 04:23:53;;;;;;;12.73;3.30;;;;;;;18.79;64.80;98764.91;4922344;29;20213;-67
2021/06/16 04:26:22;;;;;;;7.10;2.83;;;;;;;18.69;64.76;98766.22;4921912;29;20059;-68
2021/06/16 04:28:49;;;;;;;9.85;3.00;;;;;;;18.89;64.36;98762.75;4922618;29;20044;-67
2021/06/16 04:31:16;;;;;;;10.75;2.80;;;;;;;18.92;63.57;98759.28;4920641;28;20043;-68
2021/06/16 04:33:43;;;;;;;20.17;3.00;;;;;;;19.00;63.72;98769.41;4921543;29;20043;-67
2021/06/16 04:36:10;;;;;;;8.20;2.70;;;;;;;18.96;63.19;98774.81;4920986;29;20138;-67
2021/06/16 04:38:36;;;;;;;10.20;3.13;;;;;;;18.89;63.08;98782.94;4922041;29;20048;-67
2021/06/16 04:41:03;;;;;;;7.20;2.60;;;;;;;18.87;63.18;98756.75;4921234;29;20488;-68
2021/06/16 04:43:30;;;;;;;8.75;2.90;;;;;;;19.02;63.01;98757.97;4921544;29;20052;-65
2021/06/16 04:45:56;;;;;;;6.47;2.88;;;;;;;18.86;62.98;98761.50;4937951;29;20059;-66
2021/06/16 04:48:23;;;;;;;11.25;2.70;;;;;;;18.99;63.47;98759.47;4920611;29;20397;-68
2021/06/16 04:50:50;;;;;;;10.45;3.00;;;;;;;19.05;62.61;98780.22;4937365;29;20051;-67
2021/06/16 04:53:17;;;;;;;6.50;2.63;;;;;;;19.03;62.17;98784.50;4919078;29;20071;-67
2021/06/16 04:55:43;;;;;;;6.82;2.63;;;;;;;19.04;62.42;98797.97;4923874;29;20051;-67
2021/06/16 04:58:10;;;;;;;8.52;2.70;;;;;;;19.05;62.97;98784.94;4922782;29;20051;-68
2021/06/16 05:00:37;;;;;;;11.32;2.63;;;;;;;19.10;62.85;98793.81;4922602;28;20044;-68
2021/06/16 05:03:03;;;;;;;8.45;2.88;;;;;;;19.20;62.54;98799.97;4921882;29;20192;-68
2021/06/16 05:05:30;;;;;;;13.48;3.00;;;;;;;19.24;62.86;98798.88;4923014;29;20048;-68
2021/06/16 05:07:58;;;;;;;8.52;2.70;;;;;;;19.34;63.09;98807.84;4921556;29;20109;-68
2021/06/16 05:10:25;;;;;;;7.18;2.58;;;;;;;19.30;63.40;98802.19;4922895;29;20510;-68
2021/06/16 05:12:51;;;;;;;7.05;2.53;;;;;;;19.43;62.36;98808.44;4920194;29;20069;-66
2021/06/16 05:15:17;;;;;;;13.52;3.03;;;;;;;19.39;61.63;98827.78;4922796;29;20043;-67
2021/06/16 05:17:45;;;;;;;6.57;2.30;;;;;;;19.36;61.78;98809.09;4922793;29;20052;-67
2021/06/16 05:20:13;;;;;;;10.52;2.65;;;;;;;19.42;61.78;98806.84;4927553;29;20048;-66
2021/06/16 05:22:40;;;;;;;10.07;3.00;;;;;;;19.20;62.17;98822.94;4928859;29;20055;-66
2021/06/16 05:25:10;;;;;;;6.00;2.60;;;;;;;19.23;61.91;98807.56;4921482;29;20048;-66
2021/06/16 05:27:38;;;;;;;9.13;2.70;;;;;;;19.36;61.84;98811.06;4937202;29;20539;-66
2021/06/16 05:30:07;;;;;;;8.25;2.65;;;;;;;19.22;61.83;98806.75;4920866;29;20056;-65
2021/06/16 05:32:35;;;;;;;7.15;2.83;;;;;;;19.25;61.09;98824.66;4921779;29;20044;-65
2021/06/16 05:35:01;;;;;;;8.90;2.45;;;;;;;19.13;61.22;98828.31;4923595;29;20048;-65
2021/06/16 05:37:28;;;;;;;7.18;2.40;;;;;;;19.20;61.71;98817.41;4921062;29;20512;-65
2021/06/16 05:39:55;;;;;;;6.82;2.50;;;;;;;19.36;61.36;98822.94;4919675;29;20036;-66
2021/06/16 05:42:22;;;;;;;12.82;2.58;;;;;;;19.51;60.67;98817.72;4922237;29;20052;-64
2021/06/16 05:44:49;;;;;;;9.63;2.60;;;;;;;19.58;61.12;98831.78;4922632;29;20604;-65
2021/06/16 05:47:15;;;;;;;9.80;2.83;;;;;;;19.42;61.39;98831.78;4920847;29;20123;-67
2021/06/16 05:49:41;;;;;;;12.85;2.50;;;;;;;19.64;60.88;98833.09;4920592;28;20047;-65
2021/06/16 05:52:07;;;;;;;9.10;2.50;;;;;;;19.65;61.26;98845.00;4923240;29;20107;-66
2021/06/16 05:54:37;;;;;;;9.27;2.80;;;;;;;19.70;60.43;98842.78;4925909;29;20050;-66
2021/06/16 05:57:04;;;;;;;10.27;2.33;;;;;;;19.61;60.17;98842.16;4924621;29;20083;-67
2021/06/16 05:59:35;;;;;;;9.50;2.50;;;;;;;19.73;60.17;98848.75;4939746;28;20134;-66
2021/06/16 06:02:02;;;;;;;12.48;2.70;;;;;;;19.78;60.40;98837.38;4922405;29;20484;-70
2021/06/16 06:04:29;;;;;;;8.18;2.40;;;;;;;19.71;60.28;98838.00;4923628;29;20055;-70
2021/06/16 06:06:55;;;;;;;14.60;2.80;;;;;;;19.92;59.91;98848.06;4929248;29;20055;-72
2021/06/16 06:09:22;;;;;;;8.93;2.20;;;;;;;19.99;59.99;98831.56;4940013;28;20966;-70
2021/06/16 06:11:48;;;;;;;13.63;2.30;;;;;;;20.15;59.37;98822.38;4923486;29;20579;-72
2021/06/16 06:14:14;;;;;;;7.63;2.20;;;;;;;20.23;59.21;98835.25;4924407;29;20063;-70
2021/06/16 06:16:42;;;;;;;6.88;2.13;;;;;;;20.16;58.56;98837.84;4923715;29;20052;-70
2021/06/16 06:19:08;;;;;;;14.02;2.33;;;;;;;20.08;59.59;98846.03;4924331;29;20131;-71
2021/06/16 06:21:36;;;;;;;9.75;2.45;;;;;;;20.14;58.34;98876.28;4928475;29;20551;-64
2021/06/16 06:24:04;;;;;;;6.38;2.20;;;;;;;20.23;58.34;98851.91;4925382;29;20040;-65
2021/06/16 06:26:31;;;;;;;7.82;2.53;;;;;;;20.39;58.10;98855.44;4926570;29;20416;-68
2021/06/16 06:28:57;;;;;;;8.23;2.40;;;;;;;20.60;58.13;98848.69;4920098;29;20043;-66
2021/06/16 06:31:23;;;;;;;13.90;2.60;;;;;;;20.72;57.34;98860.84;4922023;29;20119;-70
2021/06/16 06:33:51;;;;;;;6.20;2.20;;;;;;;20.80;56.92;98862.56;4921829;29;20406;-69
2021/06/16 06:36:19;;;;;;;8.15;2.40;;;;;;;20.67;57.28;98857.16;4922877;29;20063;-69
2021/06/16 06:38:45;;;;;;;7.18;2.13;;;;;;;20.74;56.94;98867.59;4924141;29;20058;-69
2021/06/16 06:41:12;;;;;;;11.88;2.67;;;;;;;20.78;57.18;98864.91;4921928;29;20055;-69
2021/06/16 06:43:39;;;;;;;8.43;2.10;;;;;;;20.69;57.50;98871.50;4920628;29;20055;-70
2021/06/16 06:46:06;;;;;;;11.02;2.55;;;;;;;20.81;56.73;98862.25;4902990;29;20044;-67
2021/06/16 06:48:32;;;;;;;7.15;2.33;;;;;;;20.60;56.48;98864.53;4922588;29;20135;-69
2021/06/16 06:51:00;;;;;;;8.73;2.33;;;;;;;20.72;56.15;98875.50;4938892;29;20055;-69
2021/06/16 06:53:29;;;;;;;8.68;2.78;;;;;;;20.69;56.73;98854.84;4922335;29;20044;-70
2021/06/16 06:55:55;;;;;;;9.57;2.92;;;;;;;20.96;55.91;98870.84;4922702;29;20079;-70
2021/06/16 06:58:21;;;;;;;14.50;4.37;;;;;;;21.02;56.28;98868.56;4922745;29;20044;-69
2021/06/16 07:00:48;;;;;;;14.33;5.00;;;;;;;21.36;56.08;98869.56;4921249;29;20344;-67
2021/06/16 07:03:14;;;;;;;10.60;5.25;;;;;;;21.45;55.94;98877.66;4918400;29;20056;-71
2021/06/16 07:05:41;;;;;;;15.60;4.25;;;;;;;21.13;55.87;98889.00;4919396;29;20138;-70
2021/06/16 07:08:09;;;;;;;12.10;5.55;;;;;;;21.50;55.76;98888.50;4923580;29;20190;-71
2021/06/16 07:10:36;;;;;;;7.13;2.28;;;;;;;21.08;55.80;98892.09;4923708;29;20573;-72
2021/06/16 07:13:03;;;;;;;11.27;2.70;;;;;;;21.23;55.33;98907.88;4921947;29;20047;-68
2021/06/16 07:15:33;;;;;;;13.15;3.20;;;;;;;21.13;55.63;98899.34;4924420;29;20304;-71
2021/06/16 07:17:59;;;;;;;13.13;2.80;;;;;;;21.23;55.15;98898.75;4922314;29;20072;-70
2021/06/16 07:20:26;;;;;;;10.93;3.30;;;;;;;21.38;55.09;98895.03;4922530;29;20427;-71
2021/06/16 07:22:53;;;;;;;7.47;2.30;;;;;;;21.20;54.22;98910.56;4930834;29;20062;-71
2021/06/16 07:25:20;;;;;;;;;;;;;;;21.18;54.21;98910.97;4926391;29;20382;-70
2021/06/16 07:27:47;;;;;;;6.90;2.95;;;;;;;21.12;54.74;98895.75;4922995;29;19968;-70
2021/06/16 07:30:15;;;;;;;9.35;2.22;;;;;;;21.10;54.56;98898.91;4923281;29;20056;-73
2021/06/16 07:32:42;;;;;;;9.68;2.50;;;;;;;21.01;55.00;98933.66;4923387;29;20099;-74
2021/06/16 07:35:10;;;;;;;7.63;2.55;;;;;;;21.31;54.06;98903.25;4921256;29;20051;-72
2021/06/16 07:37:38;;;;;;;10.90;4.30;;;;;;;21.81;53.59;98914.47;4922213;29;20526;-74
2021/06/16 07:40:10;;;;;;;15.93;4.38;;;;;;;21.80;53.01;98918.41;4921883;29;20056;-71
2021/06/16 07:42:39;;;;;;;8.35;2.50;;;;;;;21.60;53.25;98931.56;4922011;29;20040;-73
2021/06/16 07:45:07;;;;;;;10.27;2.58;;;;;;;21.58;53.03;98921.97;4921721;29;20107;-74
2021/06/16 07:47:35;;;;;;;11.65;3.15;;;;;;;21.34;53.60;98927.50;4922321;29;20051;-71
2021/06/16 07:50:01;;;;;;;8.30;2.30;;;;;;;21.07;53.94;98916.31;4928073;29;20150;-67
2021/06/16 07:52:28;;;;;;;13.80;5.13;;;;;;;21.42;53.57;98922.09;4921143;29;20039;-68
2021/06/16 07:54:55;;;;;;;10.68;2.40;;;;;;;21.42;53.17;98919.31;4919888;29;20080;-67
2021/06/16 07:57:21;;;;;;;9.02;2.70;;;;;;;21.39;53.66;98930.00;4923031;29;20487;-69
2021/06/16 07:59:49;;;;;;;11.90;2.43;;;;;;;21.49;53.09;98919.44;4923498;29;20231;-73
2021/06/16 08:02:17;;;;;;;7.82;2.40;;;;;;;21.60;52.48;98939.09;4921768;29;20067;-71
2021/06/16 08:04:43;;;;;;;8.05;2.53;;;;;;;21.49;52.86;98928.59;4923177;29;20055;-71
2021/06/16 08:07:12;;;;;;;11.88;2.70;;;;;;;21.49;51.67;98922.22;4923944;29;20061;-69
2021/06/16 08:09:41;;;;;;;12.70;2.47;;;;;;;21.34;51.65;98941.41;4926924;29;20044;-70
2021/06/16 08:12:09;;;;;;;8.77;2.28;;;;;;;21.44;51.04;98939.22;4923448;29;20577;-68
2021/06/16 08:14:36;;;;;;;7.93;2.30;;;;;;;21.41;50.82;98945.53;4920861;29;20428;-72
2021/06/16 08:17:04;;;;;;;12.95;2.50;;;;;;;21.64;49.81;98951.88;4923322;29;20059;-73
2021/06/16 08:19:30;;;;;;;7.80;2.22;;;;;;;21.10;49.39;98945.31;4922135;29;20044;-67
2021/06/16 08:21:57;;;;;;;8.30;2.50;;;;;;;21.27;49.30;98959.94;4923186;29;20513;-68
2021/06/16 08:24:24;;;;;;;17.20;2.90;;;;;;;21.38;49.03;98945.06;4922897;29;20044;-65
2021/06/16 08:26:50;;;;;;;19.75;3.17;;;;;;;21.02;49.16;98938.81;4920249;29;20409;-69
2021/06/16 08:29:17;;;;;;;9.63;2.70;;;;;;;21.28;48.46;98944.88;4921276;29;20044;-70
2021/06/16 08:31:43;;;;;;;15.52;2.70;;;;;;;21.20;48.64;98964.19;4929351;29;20079;-71
2021/06/16 08:34:11;;;;;;;12.60;2.38;;;;;;;21.30;48.11;98968.34;4922441;29;20432;-68
2021/06/16 08:36:38;;;;;;;9.15;2.58;;;;;;;21.70;47.94;98963.53;4922958;29;20396;-67
2021/06/16 08:39:04;;;;;;;;;;;;;;;21.62;48.73;98970.94;4922549;29;20050;-71
2021/06/16 08:41:31;;;;;;;12.07;3.17;;;;;;;21.94;48.18;98953.22;4923391;29;19934;-71
2021/06/16 08:43:58;;;;;;;9.93;4.18;;;;;;;22.22;47.61;98950.06;4922330;28;20103;-72
2021/06/16 08:46:24;;;;;;;;;;;;;;;22.15;48.04;98951.94;4923484;29;20058;-69
2021/06/16 08:48:51;;;;;;;5.32;2.20;;;;;;;21.75;48.98;98965.22;4922615;29;19965;-68
2021/06/16 08:51:19;;;;;;;8.90;2.70;;;;;;;21.49;48.46;98994.50;4922131;29;20105;-68
2021/06/16 08:53:48;;;;;;;9.27;2.95;;;;;;;21.51;49.15;98969.91;4920606;29;20044;-68
2021/06/16 08:56:15;;;;;;;6.53;2.70;;;;;;;21.22;49.39;98975.75;4921259;29;20044;-67
2021/06/16 08:58:41;;;;;;;10.73;2.73;;;;;;;21.13;48.84;98985.47;4921369;29;20066;-68
2021/06/16 09:01:10;;;;;;;11.90;2.40;;;;;;;20.85;49.56;99003.16;4922074;29;20067;-69
2021/06/16 09:03:39;;;;;;;12.32;3.10;;;;;;;21.01;49.08;98998.34;4919696;29;20044;-68
2021/06/16 09:06:07;;;;;;;7.60;2.20;;;;;;;20.76;49.01;99011.66;4923191;29;20056;-70
2021/06/16 09:08:50;;;;;;;12.77;2.60;;;;;;;20.86;49.63;99002.00;4922258;29;20139;-71
2021/06/16 09:11:17;;;;;;;7.93;2.47;;;;;;;20.82;49.25;99032.47;4922893;29;20410;-71
2021/06/16 09:13:43;;;;;;;9.23;2.47;;;;;;;20.94;48.62;99020.44;4923115;29;20056;-73
2021/06/16 09:16:24;;;;;;;8.18;2.20;;;;;;;21.05;49.11;99006.75;4921221;29;20051;-69
2021/06/16 09:18:50;;;;;;;9.38;2.22;;;;;;;21.19;47.87;99023.72;4921652;29;20445;-71
2021/06/16 09:21:31;;;;;;;10.80;2.50;;;;;;;21.15;47.74;99011.75;4922057;28;20208;-70
2021/06/16 09:23:58;;;;;;;6.25;2.40;;;;;;;21.37;46.94;99006.59;4922654;29;20421;-67
2021/06/16 09:26:29;;;;;;;7.28;2.50;;;;;;;21.19;46.76;98995.13;4924165;29;20044;-72
2021/06/16 09:28:55;;;;;;;9.77;2.50;;;;;;;21.07;45.93;99029.44;4925992;29;20531;-70
2021/06/16 09:31:22;;;;;;;6.85;2.60;;;;;;;21.15;47.04;99016.50;4924310;29;20094;-71
2021/06/16 09:33:49;;;;;;;12.68;3.88;;;;;;;21.23;46.92;99041.28;4926057;29;20079;-67
2021/06/16 09:36:18;;;;;;;10.75;2.50;;;;;;;21.32;46.18;99027.16;4926278;29;20056;-66
2021/06/16 09:38:46;;;;;;;9.98;2.72;;;;;;;21.53;47.26;99018.44;4924030;29;20055;-67
2021/06/16 09:41:18;;;;;;;14.55;2.83;;;;;;;21.77;46.18;99018.50;4925682;29;20043;-67
2021/06/16 09:43:46;;;;;;;8.90;2.88;;;;;;;21.91;46.64;99020.72;4925168;29;20078;-67
2021/06/16 09:46:14;;;;;;;7.28;2.50;;;;;;;21.90;46.04;99027.47;4924564;29;20066;-68
2021/06/16 09:48:43;;;;;;;8.88;2.55;;;;;;;21.59;46.01;99034.81;4925701;29;20062;-68
2021/06/16 09:51:29;;;;;;;7.88;2.15;;;;;;;21.71;46.03;99036.69;4924933;29;20052;-69
2021/06/16 09:54:18;;;;;;;9.75;4.32;;;;;;;21.94;47.18;99031.13;4913919;29;20052;-69
2021/06/16 09:56:53;;;;;;;9.68;2.50;;;;;;;21.63;47.16;99035.72;4925062;29;20052;-69
2021/06/16 09:59:34;;;;;;;13.65;2.75;;;;;;;21.57;47.29;99032.41;4925932;29;20052;-69
2021/06/16 10:02:01;;;;;;;8.68;2.40;;;;;;;21.54;46.53;99031.16;4925291;29;20138;-69
2021/06/16 10:04:32;;;;;;;9.60;2.38;;;;;;;21.68;46.70;99021.53;4922481;29;20516;-69
2021/06/16 10:07:17;;;;;;;9.38;2.38;;;;;;;21.65;45.58;99055.59;4925819;29;20055;-70
2021/06/16 10:09:49;;;;;;;9.90;2.22;;;;;;;21.75;44.59;99049.44;4925721;29;20501;-70
2021/06/16 10:12:17;;;;;;;10.40;2.40;;;;;;;21.56;45.41;99035.56;4925156;29;20056;-70
2021/06/16 10:14:44;;;;;;;7.20;2.40;;;;;;;21.82;45.45;99040.44;4925459;29;20527;-69
2021/06/16 10:17:10;;;;;;;7.25;3.00;;;;;;;21.90;45.02;99021.91;4939348;29;20140;-69
2021/06/16 10:19:37;;;;;;;10.48;2.40;;;;;;;22.10;44.41;99048.50;4930190;29;20044;-69
2021/06/16 10:22:04;;;;;;;11.73;3.17;;;;;;;22.38;43.93;99039.00;4923538;29;20604;-69
2021/06/16 10:24:31;;;;;;;8.65;2.38;;;;;;;22.03;42.58;99048.38;4931219;29;20410;-68
2021/06/16 10:27:00;;;;;;;7.60;2.13;;;;;;;21.78;42.57;99053.47;4925335;29;20052;-69
2021/06/16 10:29:31;;;;;;;5.63;2.60;;;;;;;21.92;43.03;99045.41;4924717;29;20056;-70
2021/06/16 10:32:02;;;;;;;7.20;2.05;;;;;;;21.81;41.08;99061.09;4923455;29;20063;-71
2021/06/16 10:34:59;;;;;;;5.57;1.95;;;;;;;21.87;40.28;99062.41;4921403;29;20031;-71
2021/06/16 10:37:27;;;;;;;;;;;;;;;22.03;41.36;99055.94;4922933;29;20460;-68
2021/06/16 10:40:33;;;;;;;11.32;2.35;;;;;;;21.87;40.62;99076.31;4922939;29;20392;-70
2021/06/16 10:43:19;;;;;;;5.43;1.90;;;;;;;21.68;38.90;99088.28;4921426;29;20053;-67
2021/06/16 10:45:58;;;;;;;6.20;1.83;;;;;;;21.83;37.66;99081.00;4924460;29;20526;-69
2021/06/16 10:49:01;;;;;;;8.98;1.98;;;;;;;21.73;38.69;99081.63;4925115;29;20603;-68
2021/06/16 10:51:30;;;;;;;8.35;2.10;;;;;;;21.72;38.71;99077.22;4924721;29;20139;-69
2021/06/16 10:54:26;;;;;;;10.02;2.45;;;;;;;21.99;39.30;99068.94;4924393;28;20162;-69
2021/06/16 10:56:56;;;;;;;7.57;2.00;;;;;;;22.30;39.37;99067.09;4901996;29;20684;-70
2021/06/16 10:59:55;;;;;;;9.68;2.10;;;;;;;22.19;38.63;99066.91;4930217;29;20040;-73
2021/06/16 11:03:00;;;;;;;8.10;3.20;;;;;;;22.21;38.80;99061.78;4924153;29;20055;-71
2021/06/16 11:05:44;;;;;;;10.60;2.13;;;;;;;22.45;38.26;99073.72;4925691;29;20047;-64
2021/06/16 11:08:49;;;;;;;5.78;1.88;;;;;;;22.17;38.11;99061.75;4930483;29;20060;-70
2021/06/16 11:11:16;;;;;;;10.07;2.20;;;;;;;22.28;37.97;99075.84;4923868;29;20130;-68
2021/06/16 11:13:43;;;;;;;8.38;2.13;;;;;;;22.00;39.03;99076.94;4924576;29;20154;-70
2021/06/16 11:16:51;;;;;;;8.88;2.30;;;;;;;22.14;38.16;99083.94;4939121;29;20066;-71
2021/06/16 11:19:26;;;;;;;7.10;1.83;;;;;;;22.18;38.20;99082.00;4921636;29;20056;-70
2021/06/16 11:21:56;;;;;;;9.85;2.10;;;;;;;22.25;38.50;99073.81;4922290;29;20062;-69
2021/06/16 11:24:42;;;;;;;9.45;1.80;;;;;;;22.38;38.00;99068.84;4929159;29;20082;-70
2021/06/16 11:27:09;;;;;;;12.32;4.10;;;;;;;22.53;38.19;99055.97;4928717;29;20130;-69
2021/06/16 11:30:03;;;;;;;9.23;3.75;;;;;;;22.43;36.74;99079.66;4924063;29;20059;-71
2021/06/16 11:32:30;;;;;;;13.18;2.53;;;;;;;22.44;36.91;99075.69;4925022;29;20485;-69
2021/06/16 11:34:56;;;;;;;8.73;2.42;;;;;;;22.41;36.02;99073.66;4923957;29;20052;-71
2021/06/16 11:37:59;;;;;;;4.88;1.80;;;;;;;22.25;35.65;99071.03;4924185;29;20052;-70
2021/06/16 11:40:28;;;;;;;17.45;3.47;;;;;;;22.41;36.64;99070.88;4923679;29;20056;-69